Latest Weather Observations for Glen Innes Airport

IDN60801

Issued at 2:32 pm EDT Wednesday 22 February 2017 (issued every 30 minutes, with the page automatically refreshed every 10 minutes)

About weather observations | Map of weather stations | Latest weather observations for NSW | Other Formats
Station Details ID: 056243 Name: GLEN INNES AIRPORT AWS Lat: -29.68 Lon: 151.69 Height: 1044.3 m
Data from the previous 72 hours. | See also: Recent months at Glen Innes Airport
Date/Time
EDT
Temp
°C
App
Temp
°C
Dew
Point
°C
Rel
Hum
%
Delta-T
°C
Wind Press
QNH
hPa
Press
MSL
hPa
Rain since
9am
mm
Dir  Spd
km/h
Gust
km/h
Spd
kts
Gust
kts
22/02:30pm 23.4 21.6 13.3 53 6.1 ESE 15 26 8 14 1023.3 1017.8 0.0
22/02:00pm 23.1 20.5 12.1 50 6.5 ESE 17 24 9 13 1023.6 1018.1 0.0
22/01:30pm 21.8 19.0 11.2 51 6.2 ESE 17 24 9 13 1023.8 1018.3 0.0
22/01:00pm 22.3 20.2 13.6 58 5.3 E 17 26 9 14 1024.0 1018.6 0.0
22/12:30pm 21.8 19.4 13.7 60 4.9 ESE 19 26 10 14 1024.3 1018.8 0.0
22/12:00pm 21.5 18.6 12.9 58 5.1 ESE 20 28 11 15 1024.5 1019.0 0.0
22/11:30am 20.7 18.1 13.2 62 4.5 E 19 28 10 15 1024.7 1019.2 0.0
22/11:00am 19.4 16.6 13.3 68 3.6 E 20 30 11 16 1024.8 1019.3 0.0
22/10:30am 18.2 15.3 14.1 77 2.5 ESE 22 28 12 15 1025.0 1019.6 0.0
22/10:26am 18.0 15.4 13.9 77 2.5 ESE 20 28 11 15 1025.1 1019.7 0.0
22/10:00am 17.5 14.8 14.6 83 1.7 E 22 30 12 16 1025.0 1019.6 0.0
22/09:30am 17.3 14.8 14.2 82 1.9 E 20 30 11 16 1024.9 1019.5 0.0
22/09:00am 17.1 14.3 14.4 84 1.6 E 22 30 12 16 1024.9 1019.5 0.0
22/08:30am 16.3 14.0 14.0 86 1.4 ESE 19 26 10 14 1024.7 1019.2 0.0
22/08:00am 15.5 12.0 13.5 88 1.2 ESE 24 32 13 17 1024.3 1018.8 0.0
22/07:30am 15.1 12.4 13.5 90 0.9 ESE 20 28 11 15 1024.1 1018.7 0.0
22/07:00am 14.6 12.3 13.1 91 0.9 ESE 17 22 9 12 1023.8 1018.3 0.0
22/06:30am 14.3 12.8 13.2 93 0.6 SE 13 17 7 9 1023.5 1018.0 0.0
22/06:00am 13.5 12.1 12.2 92 0.7 ESE 11 13 6 7 1023.3 1017.8 0.0
22/05:30am 14.0 12.7 12.6 91 0.8 SE 11 15 6 8 1023.0 1017.5 0.0
22/05:17am 13.8 12.6 12.7 93 0.6 ESE 11 13 6 7 1023.0 1017.5 0.0
22/05:00am 13.6 12.2 12.2 91 0.8 SE 11 13 6 7 1022.8 1017.3 0.0
22/04:30am 14.0 12.3 12.4 90 0.9 ESE 13 17 7 9 1023.0 1017.5 0.0
22/04:12am 14.4 12.4 12.6 89 1.0 ESE 15 20 8 11 1022.9 1017.4 0.0
22/04:00am 14.7 12.3 12.7 88 1.2 SE 17 20 9 11 1022.7 1017.2 0.0
22/03:30am 15.4 13.2 13.4 88 1.2 ESE 17 20 9 11 1022.5 1017.0 0.0
22/03:00am 15.5 13.0 13.5 88 1.2 ESE 19 24 10 13 1022.4 1016.9 0.0
22/02:30am 15.6 13.1 13.6 88 1.2 E 19 26 10 14 1022.6 1017.1 0.0
22/02:00am 15.8 13.7 13.5 86 1.4 E 17 22 9 12 1022.9 1017.4 0.0
22/01:30am 15.7 12.6 13.5 87 1.3 E 22 32 12 17 1022.9 1017.4 0.0
22/01:00am 15.8 13.5 14.0 89 1.1 E 19 24 10 13 1023.1 1017.7 0.0
22/12:30am 15.8 13.3 14.0 89 1.1 ESE 20 26 11 14 1023.4 1017.9 0.0
22/12:25am 15.9 13.3 13.9 88 1.2 ESE 20 28 11 15 1023.4 1017.9 0.0
22/12:00am 15.3 13.6 13.7 90 0.9 ESE 15 20 8 11 1023.4 1017.9 0.0
 
Date/Time
EDT
Temp
°C
App
Temp
°C
Dew
Point
°C
Rel
Hum
%
Delta-T
°C
Wind Press
QNH
hPa
Press
MSL
hPa
Rain since
9am
mm
Dir  Spd
km/h
Gust
km/h
Spd
kts
Gust
kts
21/11:35pm 15.5 13.4 13.5 88 1.2 ESE 17 20 9 11 1023.6 1018.1 0.0
21/11:30pm 15.6 13.5 13.6 88 1.2 ESE 17 22 9 12 1023.6 1018.1 0.0
21/11:00pm 15.9 13.8 13.7 87 1.3 ESE 17 22 9 12 1023.8 1018.3 0.0
21/10:30pm 16.1 13.4 13.6 85 1.5 E 20 28 11 15 1023.6 1018.1 0.0
21/10:00pm 16.4 14.5 14.1 86 1.4 ESE 17 24 9 13 1024.0 1018.6 0.0
21/09:30pm 16.4 14.6 14.4 88 1.2 ESE 17 24 9 13 1023.6 1018.1 0.0
21/09:15pm 16.5 14.7 14.5 88 1.2 ESE 17 22 9 12 1023.5 1018.0 0.0
21/09:00pm 16.5 14.1 14.5 88 1.2 E 20 26 11 14 1023.1 1017.7 0.0
21/08:30pm 16.8 14.7 14.6 87 1.3 ESE 19 24 10 13 1022.8 1017.3 0.0
21/08:00pm 17.3 15.6 14.6 84 1.6 ESE 17 24 9 13 1022.9 1017.4 0.0
21/07:30pm 18.0 16.3 14.7 81 2.0 ESE 17 20 9 11 1022.5 1017.0 0.0
21/07:00pm 18.9 17.5 14.6 76 2.6 ESE 15 20 8 11 1021.9 1016.4 0.0
21/06:30pm 19.7 18.8 14.9 74 2.9 E 13 20 7 11 1021.6 1016.1 0.0
21/06:00pm 20.0 17.9 14.6 71 3.3 ESE 19 24 10 13 1021.2 1015.6 0.0
21/05:30pm 20.3 17.9 14.4 69 3.6 ESE 20 26 11 14 1021.3 1015.7 0.0
21/05:00pm 21.3 19.5 14.5 65 4.2 E 17 20 9 11 1021.0 1015.5 0.0
21/04:30pm 22.1 20.8 9.3 44 7.2 N 6 9 3 5 1020.9 1015.4 0.0
21/04:00pm 22.5 21.3 9.6 44 7.3 NNE 6 11 3 6 1021.0 1015.5 0.0
21/03:30pm 22.5 20.7 9.3 43 7.5 WNW 9 17 5 9 1021.0 1015.5 0.0
21/03:00pm 22.5 21.4 8.6 41 7.7 SSE 4 11 2 6 1021.2 1015.6 0.0
21/02:30pm 22.6 21.0 8.0 39 8.1 NW 6 9 3 5 1021.3 1015.7 0.0
21/02:00pm 22.4 20.8 8.9 42 7.6 WNW 7 11 4 6 1021.4 1015.9 0.0
21/01:30pm 22.4 19.7 8.9 42 7.6 NNW 13 17 7 9 1021.7 1016.2 0.0
21/01:00pm 22.2 20.3 9.0 43 7.4 NE 9 15 5 8 1021.8 1016.3 0.0
21/12:30pm 22.1 20.3 9.6 45 7.1 WNW 9 17 5 9 1022.0 1016.5 0.0
21/12:00pm 22.1 20.2 8.9 43 7.4 NNW 9 17 5 9 1022.6 1017.1 0.0
21/11:30am 21.3 20.7 12.4 57 5.3 NNE 7 15 4 8 1022.9 1017.4 0.0
21/11:00am 20.2 19.1 11.9 59 4.8 NNW 9 15 5 8 1023.1 1017.7 0.0
21/10:30am 19.6 20.2 14.2 71 3.3 NE 4 11 2 6 1023.0 1017.5 0.0
21/10:00am 18.4 18.1 14.5 78 2.4 ESE 9 13 5 7 1022.9 1017.4 0.0
21/09:30am 16.9 15.9 13.4 80 2.1 ESE 11 15 6 8 1022.7 1017.2 0.0
21/09:00am 16.4 15.5 13.7 84 1.6 SE 11 15 6 8 1022.4 1016.9 0.0
21/08:30am 15.9 15.1 13.9 88 1.2 ESE 11 15 6 8 1021.9 1016.4 0.0
21/08:00am 15.1 14.1 13.5 90 0.9 SE 11 13 6 7 1021.6 1016.1 0.0
21/07:30am 13.9 13.2 13.1 95 0.5 SE 9 11 5 6 1021.2 1015.6 0.0
21/07:00am 11.6 10.1 10.5 93 0.6 SE 9 9 5 5 1020.7 1015.2 0.0
21/06:30am 12.2 10.9 11.1 93 0.6 SE 9 11 5 6 1020.2 1014.6 0.0
21/06:00am 12.3 10.6 11.2 93 0.6 SE 11 13 6 7 1019.9 1014.4 0.0
21/05:30am 12.2 10.4 10.9 92 0.7 SE 11 15 6 8 1019.5 1013.9 0.0
21/05:00am 12.9 10.7 12.0 94 0.5 SE 15 17 8 9 1019.4 1013.8 0.0
21/04:30am 11.7 9.5 10.8 94 0.5 SSE 13 15 7 8 1019.4 1013.8 0.0
21/04:00am 11.6 9.4 10.7 94 0.5 SSE 13 15 7 8 1019.3 1013.7 0.0
21/03:30am 11.2 8.9 10.3 94 0.5 SSE 13 17 7 9 1019.1 1013.5 0.0
21/03:00am 11.3 9.6 10.0 92 0.7 SE 9 13 5 7 1019.4 1013.8 0.0
21/02:30am 11.6 9.6 10.2 91 0.8 SSE 11 15 6 8 1019.4 1013.8 0.0
21/02:00am 12.8 10.8 11.5 92 0.7 SE 13 17 7 9 1019.5 1013.9 0.0
21/01:30am 12.1 10.3 11.0 93 0.6 SE 11 13 6 7 1019.8 1014.3 0.0
21/01:00am 11.4 9.4 10.3 93 0.6 SE 11 15 6 8 1019.9 1014.4 0.0
21/12:30am 11.3 9.6 10.0 92 0.7 SE 9 11 5 6 1020.0 1014.5 0.0
21/12:00am 11.0 9.2 9.3 89 0.9 SE 9 11 5 6 1019.9 1014.4 0.0
 
Date/Time
EDT
Temp
°C
App
Temp
°C
Dew
Point
°C
Rel
Hum
%
Delta-T
°C
Wind Press
QNH
hPa
Press
MSL
hPa
Rain since
9am
mm
Dir  Spd
km/h
Gust
km/h
Spd
kts
Gust
kts
20/11:30pm 11.2 8.5 8.8 85 1.3 SE 13 15 7 8 1019.8 1014.3 0.0
20/11:00pm 11.8 8.7 8.8 82 1.6 ESE 15 19 8 10 1019.8 1014.3 0.0
20/10:30pm 10.2 7.2 7.6 84 1.3 ESE 13 20 7 11 1019.6 1014.1 0.0
20/10:00pm 10.6 8.4 7.7 82 1.5 ESE 9 9 5 5 1019.3 1013.7 0.0
20/09:30pm 11.1 9.6 6.8 75 2.2 SW 4 7 2 4 1018.9 1013.4 0.0
20/09:00pm 13.5 12.7 6.6 63 3.5 CALM 0 0 0 0 1018.7 1013.1 0.0
20/08:30pm 14.4 12.3 6.5 59 4.0 SW 7 7 4 4 1018.3 1012.7 0.0
20/08:00pm 16.3 14.0 5.0 47 5.7 WSW 6 7 3 4 1017.7 1012.1 0.0
20/07:30pm 18.8 15.7 3.4 36 7.6 WSW 9 11 5 6 1017.2 1011.6 0.0
20/07:00pm 20.9 17.0 3.2 31 8.9 W 13 15 7 8 1016.7 1011.1 0.0
20/06:30pm 21.8 17.7 2.0 27 9.8 W 13 17 7 9 1016.3 1010.7 0.0
20/06:00pm 22.3 18.2 2.4 27 9.9 W 13 19 7 10 1015.7 1010.1 0.0
20/05:30pm 22.5 19.0 3.6 29 9.6 W 11 17 6 9 1015.4 1009.8 0.0
20/05:00pm 22.3 18.1 3.9 30 9.4 NW 15 28 8 15 1015.3 1009.7 0.0
20/04:30pm 22.1 18.2 3.3 29 9.5 W 13 19 7 10 1015.4 1009.8 0.0
20/04:00pm 22.1 18.9 2.8 28 9.7 NW 9 19 5 10 1015.2 1009.5 0.0
20/03:30pm 22.0 17.5 2.2 27 9.8 WNW 15 24 8 13 1015.4 1009.8 0.0
20/03:00pm 21.7 17.3 2.9 29 9.4 WNW 15 28 8 15 1015.3 1009.7 0.0
20/02:30pm 21.9 18.5 5.8 35 8.5 W 13 22 7 12 1015.4 1009.8 0.0
20/02:00pm 21.1 16.9 3.8 32 8.8 WNW 15 30 8 16 1015.5 1009.9 0.0
20/01:30pm 21.0 16.5 4.1 33 8.6 W 17 24 9 13 1016.0 1010.3 0.0
20/01:00pm 20.3 15.3 1.2 28 9.2 W 17 26 9 14 1016.3 1010.7 0.0
20/12:30pm 20.1 15.7 2.9 32 8.5 W 15 22 8 12 1016.3 1010.7 0.0
20/12:00pm 20.0 14.8 3.7 34 8.2 W 20 26 11 14 1016.5 1010.9 0.0
20/11:30am 19.4 14.1 3.2 34 8.0 WSW 20 30 11 16 1016.5 1010.9 0.0
20/11:00am 18.9 12.7 1.9 32 8.2 WSW 24 32 13 17 1016.6 1011.0 0.0
20/10:30am 18.9 13.3 3.5 36 7.7 SW 22 32 12 17 1016.4 1010.8 0.0
20/10:00am 18.1 13.1 1.2 32 8.0 WSW 17 24 9 13 1016.3 1010.7 0.0
20/09:30am 17.2 12.3 2.0 36 7.2 SW 17 28 9 15 1016.3 1010.7 0.0
20/09:00am 16.0 12.9 5.6 50 5.3 SSE 11 17 6 9 1015.7 1010.1 15.6
20/08:30am 14.6 12.9 8.3 66 3.3 ESE 7 11 4 6 1015.8 1010.2 15.6
20/08:00am 12.6 11.6 8.7 77 2.1 SSE 4 9 2 5 1015.5 1009.9 15.6
20/07:30am 11.7 11.7 11.1 96 0.3 NE 2 6 1 3 1015.3 1009.7 15.6
20/07:00am 8.9 7.1 8.0 94 0.5 SSE 7 9 4 5 1014.8 1009.2 15.6
20/06:30am 10.3 10.1 9.2 93 0.6 CALM 0 0 0 0 1014.5 1008.9 15.6
20/06:00am 10.9 10.9 9.8 93 0.6 CALM 0 4 0 2 1014.1 1008.4 15.6
20/05:30am 11.6 10.4 10.3 92 0.7 WSW 7 9 4 5 1013.9 1008.2 15.6
20/05:00am 12.4 10.7 11.1 92 0.7 W 11 15 6 8 1013.5 1007.9 15.6
20/04:30am 13.1 11.2 11.7 91 0.8 WSW 13 17 7 9 1013.2 1007.5 15.6
20/04:00am 13.9 12.2 12.5 91 0.8 W 13 17 7 9 1013.2 1007.5 15.6
20/03:30am 14.5 13.5 13.4 93 0.6 W 11 15 6 8 1013.1 1007.4 15.6
20/03:00am 14.8 13.9 13.7 93 0.6 WSW 11 15 6 8 1012.9 1007.2 15.6
20/02:44am 15.0 13.4 13.9 93 0.7 WNW 15 20 8 11 1013.4 1007.7 15.6
20/02:30am 15.1 13.9 14.0 93 0.7 WNW 13 15 7 8 1013.0 1007.3 15.6
20/02:00am 15.4 14.7 14.3 93 0.7 W 11 15 6 8 1012.9 1007.2 15.6
20/01:30am 15.6 14.6 14.6 94 0.6 WNW 13 17 7 9 1013.0 1007.3 15.6
20/01:00am 15.6 15.0 14.6 94 0.6 WNW 11 15 6 8 1012.9 1007.2 15.6
20/12:30am 15.8 14.9 14.8 94 0.6 NW 13 19 7 10 1013.3 1007.6 15.6
20/12:00am 15.8 14.9 14.8 94 0.6 NW 13 15 7 8 1013.2 1007.5 15.6
 
Date/Time
EDT
Temp
°C
App
Temp
°C
Dew
Point
°C
Rel
Hum
%
Delta-T
°C
Wind Press
QNH
hPa
Press
MSL
hPa
Rain since
9am
mm
Dir  Spd
km/h
Gust
km/h
Spd
kts
Gust
kts
19/11:30pm 15.7 14.7 14.7 94 0.6 W 13 17 7 9 1013.2 1007.5 15.4
19/11:24pm 15.8 14.9 14.8 94 0.6 W 13 17 7 9 1013.7 1008.1 15.4
19/11:00pm 15.6 15.0 14.6 94 0.6 E 11 15 6 8 1012.5 1006.8 15.4
19/10:30pm 15.7 16.8 14.7 94 0.6 NNE 2 7 1 4 1014.2 1008.5 15.2
19/10:00pm 15.5 15.2 14.4 93 0.7 NNE 9 11 5 6 1013.7 1008.1 15.0
19/09:30pm 15.6 15.3 14.5 93 0.7 WNW 9 11 5 6 1014.2 1008.5 14.8
19/09:01pm 15.6 15.3 14.5 93 0.7 W 9 11 5 6 1013.9 1008.2 14.4
19/09:00pm 15.6 15.3 14.5 93 0.7 W 9 11 5 6 1013.9 1008.2 14.4
19/08:30pm 15.7 15.5 14.6 93 0.7 WSW 9 13 5 7 1013.2 1007.5 13.6
19/08:19pm 15.8 15.2 14.7 93 0.7 WSW 11 15 6 8 1013.1 1007.4 12.8
19/08:15pm 15.8 14.8 14.7 93 0.7 SW 13 20 7 11 1013.1 1007.4 12.6
19/08:00pm 16.1 14.5 15.0 93 0.7 W 17 24 9 13 1012.5 1006.8 11.2
19/07:38pm 16.6 15.0 15.1 91 0.9 W 17 26 9 14 1012.3 1006.6 6.2
19/07:35pm 16.7 15.2 15.2 91 0.9 W 17 26 9 14 1012.4 1006.7 5.6
19/07:30pm 16.8 15.0 15.5 92 0.8 W 19 24 10 13 1012.4 1006.7 5.2
19/07:00pm 17.4 16.1 15.7 90 1.0 W 17 22 9 12 1012.0 1006.3 2.0
19/06:30pm 17.9 16.7 16.2 90 1.1 W 17 22 9 12 1011.5 1005.8 1.6
19/06:18pm 18.1 17.7 16.3 89 1.1 WNW 13 19 7 10 1011.6 1005.9 1.4
19/06:00pm 18.3 18.3 16.3 88 1.3 WNW 11 15 6 8 1011.6 1005.9 1.2
19/05:30pm 18.6 18.6 16.2 86 1.5 W 11 15 6 8 1011.5 1005.8 1.0
19/05:00pm 18.8 19.7 16.6 87 1.4 NW 7 9 4 5 1011.3 1005.6 1.0
19/04:30pm 18.7 19.2 16.5 87 1.4 NNW 9 13 5 7 1011.2 1005.5 1.0
19/04:00pm 18.1 17.0 16.3 89 1.1 NNW 17 24 9 13 1011.9 1006.2 0.8
19/03:30pm 18.7 16.6 16.1 85 1.6 WNW 22 30 12 16 1012.0 1006.3 0.4
19/03:00pm 20.1 18.4 16.3 79 2.4 WNW 20 26 11 14 1012.0 1006.3 0.2

Other Formats:

Comma delimited format used in spreadsheet applications
http://www.bom.gov.au/fwo/IDN60801/IDN60801.94588.axf

JavaScript Object Notation format (JSON) in row-major order
http://www.bom.gov.au/fwo/IDN60801/IDN60801.94588.json